createdAt,value
2022-12-27T00:00:32.449Z,73.54
2022-12-27T00:05:34.205Z,73.64
2022-12-27T00:10:36.726Z,73.65
2022-12-27T00:15:38.579Z,73.57
2022-12-27T00:20:40.481Z,73.52
2022-12-27T00:25:42.391Z,73.53
2022-12-27T00:30:44.272Z,73.60
2022-12-27T00:35:46.061Z,73.51
2022-12-27T00:40:48.371Z,73.83
2022-12-27T00:45:50.558Z,73.57
2022-12-27T00:51:05.620Z,73.32
2022-12-27T00:56:13.956Z,73.26
2022-12-27T01:01:19.896Z,73.19
2022-12-27T01:06:29.111Z,73.09
2022-12-27T01:11:31.995Z,73.15
2022-12-27T01:16:33.911Z,73.22
2022-12-27T01:21:35.892Z,73.23
2022-12-27T01:26:37.758Z,73.19
2022-12-27T01:31:40.851Z,73.06
2022-12-27T01:36:43.309Z,73.12
2022-12-27T01:42:04.094Z,73.16
2022-12-27T01:47:29.572Z,73.14
2022-12-27T01:52:59.499Z,73.32
2022-12-27T01:58:07.317Z,73.22
2022-12-27T02:03:12.056Z,72.93
2022-12-27T02:08:29.261Z,72.97
2022-12-27T02:13:34.846Z,73.00
2022-12-27T02:18:36.757Z,73.07
2022-12-27T02:24:03.522Z,73.02
2022-12-27T02:29:15.672Z,73.01
2022-12-27T02:34:26.550Z,73.01
2022-12-27T02:39:30.888Z,72.66
2022-12-27T02:44:51.096Z,72.92
2022-12-27T02:50:11.185Z,72.47
2022-12-27T02:56:09.594Z,72.81
2022-12-27T03:01:47.250Z,72.58
2022-12-27T03:07:01.132Z,72.51
2022-12-27T03:12:45.842Z,72.00
2022-12-27T03:17:58.607Z,71.93
2022-12-27T03:23:22.069Z,71.79
2022-12-27T03:28:47.324Z,71.51
2022-12-27T03:34:00.041Z,71.05
2022-12-27T03:39:20.424Z,71.41
2022-12-27T03:44:25.365Z,71.50
2022-12-27T03:50:03.185Z,71.30
2022-12-27T03:55:06.088Z,70.90
2022-12-27T04:00:09.088Z,70.74
2022-12-27T04:05:18.203Z,70.80
2022-12-27T04:10:38.552Z,70.59
2022-12-27T04:15:58.979Z,70.63
2022-12-27T04:21:19.214Z,70.62
2022-12-27T04:26:39.201Z,70.24
2022-12-27T04:31:59.455Z,70.22
2022-12-27T04:37:01.293Z,70.33
2022-12-27T04:42:21.536Z,70.24
2022-12-27T04:47:42.777Z,69.89
2022-12-27T04:53:03.618Z,69.51
2022-12-27T04:58:05.595Z,69.25
2022-12-27T05:03:11.387Z,69.26
2022-12-27T05:08:33.802Z,68.88
2022-12-27T05:13:54.277Z,69.34
2022-12-27T05:18:56.466Z,68.70
2022-12-27T05:24:16.700Z,68.42
2022-12-27T05:29:18.440Z,68.37
2022-12-27T05:34:20.165Z,68.36
2022-12-27T05:39:21.920Z,68.16
2022-12-27T05:44:23.640Z,68.15
2022-12-27T05:49:25.453Z,68.18
2022-12-27T05:54:27.205Z,68.03
2022-12-27T05:59:29.037Z,67.90
2022-12-27T06:04:30.930Z,67.75
2022-12-27T06:09:33.026Z,67.49
2022-12-27T06:14:34.829Z,67.49
2022-12-27T06:19:36.643Z,67.33
2022-12-27T06:24:38.442Z,67.35
2022-12-27T06:29:40.404Z,67.31
2022-12-27T06:34:42.164Z,67.30
2022-12-27T06:39:45.303Z,67.40
2022-12-27T06:44:47.104Z,67.45
2022-12-27T06:49:48.906Z,67.17
2022-12-27T06:54:50.661Z,67.62
2022-12-27T06:59:54.174Z,67.62
2022-12-27T07:04:56.275Z,67.63
2022-12-27T07:09:59.254Z,67.66
2022-12-27T07:15:00.992Z,67.29
2022-12-27T07:20:04.751Z,67.55
2022-12-27T07:25:06.957Z,67.75
2022-12-27T07:30:09.437Z,67.54
2022-12-27T07:35:11.261Z,67.58
2022-12-27T07:40:13.313Z,67.71
2022-12-27T07:45:15.244Z,67.76
2022-12-27T07:50:16.955Z,67.73
2022-12-27T07:55:18.763Z,67.79
2022-12-27T08:00:21.026Z,68.06
2022-12-27T08:05:27.649Z,67.95
2022-12-27T08:10:29.968Z,67.85
2022-12-27T08:15:31.979Z,68.01
2022-12-27T08:20:34.213Z,68.09
2022-12-27T08:25:36.113Z,68.22
2022-12-27T08:30:39.401Z,68.17
2022-12-27T08:35:52.885Z,68.28
2022-12-27T08:40:55.529Z,68.17
2022-12-27T08:46:08.552Z,68.24
2022-12-27T08:51:13.203Z,68.23
2022-12-27T08:56:16.412Z,68.30
2022-12-27T09:01:18.718Z,68.35
2022-12-27T09:06:22.760Z,68.30
2022-12-27T09:11:33.447Z,68.46
2022-12-27T09:16:36.378Z,68.60
2022-12-27T09:21:42.182Z,68.60
2022-12-27T09:26:44.039Z,68.73
2022-12-27T09:31:45.875Z,68.94
2022-12-27T09:36:48.985Z,68.53
2022-12-27T09:47:50.070Z,68.45
2022-12-27T09:53:12.486Z,68.50
2022-12-27T09:58:42.831Z,68.35
2022-12-27T10:03:44.664Z,68.42
2022-12-27T10:08:59.477Z,68.45
2022-12-27T10:14:09.930Z,68.34
2022-12-27T10:19:41.270Z,68.35
2022-12-27T10:25:00.203Z,68.29
2022-12-27T10:30:03.717Z,68.11
2022-12-27T10:35:06.969Z,67.96
2022-12-27T10:40:19.296Z,67.87
2022-12-27T10:45:37.092Z,67.69
2022-12-27T10:50:44.514Z,67.34
2022-12-27T10:55:46.588Z,67.38
2022-12-27T11:00:56.989Z,67.26
2022-12-27T11:06:07.256Z,67.02
2022-12-27T11:11:18.112Z,67.11
2022-12-27T11:16:31.906Z,67.19
2022-12-27T11:21:40.639Z,67.24
2022-12-27T11:26:54.167Z,67.01
2022-12-27T11:31:57.356Z,67.00
2022-12-27T11:37:14.421Z,66.63
2022-12-27T11:42:38.644Z,66.31
2022-12-27T11:47:46.622Z,66.43
2022-12-27T11:52:48.739Z,66.45
2022-12-27T11:58:14.744Z,66.51
2022-12-27T12:03:45.921Z,66.32
2022-12-27T12:08:59.728Z,66.27
2022-12-27T12:14:11.613Z,66.08
2022-12-27T12:19:44.922Z,65.89
2022-12-27T12:24:55.697Z,65.95
2022-12-27T12:29:57.498Z,65.81
2022-12-27T12:35:33.055Z,65.86
2022-12-27T12:40:53.498Z,65.70
2022-12-27T12:46:02.947Z,66.01
2022-12-27T12:51:25.666Z,66.24
2022-12-27T12:57:04.300Z,66.06
2022-12-27T13:02:06.118Z,66.01
2022-12-27T13:07:37.766Z,66.05
2022-12-27T13:12:59.571Z,66.28
2022-12-27T13:18:07.443Z,66.21
2022-12-27T13:23:09.191Z,66.24
2022-12-27T13:28:29.615Z,65.80
2022-12-27T13:33:48.829Z,65.88
2022-12-27T13:39:42.555Z,66.15
2022-12-27T13:45:22.018Z,66.26
2022-12-27T13:51:05.917Z,66.30
2022-12-27T14:02:20.587Z,66.51
2022-12-27T14:07:40.837Z,66.80
2022-12-27T14:13:01.205Z,66.84
2022-12-27T14:18:05.940Z,66.87
2022-12-27T14:23:07.671Z,67.06
2022-12-27T14:28:18.528Z,66.88
2022-12-27T14:33:59.523Z,67.09
2022-12-27T14:39:32.249Z,67.21
2022-12-27T14:44:49.427Z,67.35
2022-12-27T14:50:24.981Z,67.22
2022-12-27T14:55:54.946Z,67.34
2022-12-27T15:01:39.608Z,67.42
2022-12-27T15:07:02.893Z,67.31
2022-12-27T15:12:43.685Z,67.23
2022-12-27T15:18:34.265Z,67.44
2022-12-27T15:23:51.678Z,67.24
2022-12-27T15:29:17.022Z,67.42
2022-12-27T15:34:31.319Z,67.61
2022-12-27T15:39:33.206Z,67.60
2022-12-27T15:45:00.752Z,67.43
2022-12-27T15:50:41.667Z,67.63
2022-12-27T15:56:17.632Z,67.56
2022-12-27T16:01:28.361Z,67.77
2022-12-27T16:06:33.332Z,67.67
2022-12-27T16:12:09.465Z,67.75
2022-12-27T16:17:20.347Z,67.68
2022-12-27T16:22:28.268Z,67.64
2022-12-27T16:27:33.183Z,67.68
2022-12-27T16:32:35.030Z,67.85
2022-12-27T16:37:45.148Z,67.75
2022-12-27T16:42:47.590Z,67.88
2022-12-27T16:48:10.749Z,67.78
2022-12-27T16:53:34.431Z,68.10
2022-12-27T16:58:38.837Z,68.10
2022-12-27T17:03:40.611Z,68.31
2022-12-27T17:08:42.545Z,68.37
2022-12-27T17:13:49.696Z,68.43
2022-12-27T17:19:02.835Z,68.33
2022-12-27T17:24:09.203Z,68.45
2022-12-27T17:29:29.382Z,68.63
2022-12-27T17:34:56.865Z,68.82
2022-12-27T17:40:34.207Z,68.72
2022-12-27T17:46:13.634Z,68.83
2022-12-27T17:51:20.072Z,68.61
2022-12-27T17:56:42.050Z,68.81
2022-12-27T18:01:50.378Z,68.90
2022-12-27T18:06:58.057Z,69.12
2022-12-27T18:12:00.785Z,69.18
2022-12-27T18:17:02.986Z,69.21
2022-12-27T18:22:05.192Z,69.13
2022-12-27T18:27:19.483Z,69.29
2022-12-27T18:32:23.575Z,69.29
2022-12-27T18:37:27.716Z,69.17
2022-12-27T18:42:29.712Z,69.46
2022-12-27T18:47:38.377Z,69.41
2022-12-27T18:52:41.767Z,69.60
2022-12-27T18:57:44.079Z,69.55
2022-12-27T19:02:46.087Z,69.67
2022-12-27T19:07:59.831Z,69.66
2022-12-27T19:13:02.850Z,69.44
2022-12-27T19:18:07.223Z,69.49
2022-12-27T19:23:28.960Z,69.85
2022-12-27T19:28:31.895Z,69.81
2022-12-27T19:33:35.939Z,69.98
2022-12-27T19:38:47.738Z,69.78
2022-12-27T19:43:50.366Z,69.87
2022-12-27T19:49:23.547Z,69.92
2022-12-27T19:54:20.203Z,69.69
2022-12-27T19:59:23.247Z,70.01
2022-12-27T20:04:25.168Z,69.93
2022-12-27T20:09:27.441Z,69.74
2022-12-27T20:14:29.280Z,70.13
2022-12-27T20:19:31.189Z,70.18
2022-12-27T20:29:51.189Z,70.02
2022-12-27T20:34:53.012Z,70.14
2022-12-27T20:39:54.871Z,70.12
2022-12-27T20:44:58.361Z,70.16
2022-12-27T20:50:00.209Z,70.33
2022-12-27T20:55:01.950Z,70.36
2022-12-27T21:00:07.350Z,70.51
2022-12-27T21:05:09.426Z,70.34
2022-12-27T21:10:11.453Z,70.33
2022-12-27T21:15:13.769Z,70.28
2022-12-27T21:20:15.671Z,70.69
2022-12-27T21:25:17.498Z,70.30
2022-12-27T21:30:19.415Z,70.34
2022-12-27T21:35:21.328Z,70.33
2022-12-27T21:40:23.153Z,70.37
2022-12-27T21:45:25.211Z,70.38
2022-12-27T21:50:30.190Z,70.41
2022-12-27T21:55:36.719Z,70.55
2022-12-27T22:00:39.294Z,70.55
2022-12-27T22:05:42.344Z,70.75
2022-12-27T22:10:45.443Z,70.52
2022-12-27T22:15:57.954Z,70.61
2022-12-27T22:21:03.889Z,70.68
2022-12-27T22:26:13.101Z,70.59
2022-12-27T22:31:21.177Z,70.49
2022-12-27T22:36:25.529Z,70.37
2022-12-27T22:41:33.077Z,70.55
2022-12-27T22:47:24.403Z,70.29
2022-12-27T22:51:57.633Z,70.35
2022-12-27T22:56:59.556Z,70.47
2022-12-27T23:02:01.565Z,70.44
2022-12-27T23:07:03.747Z,70.16
2022-12-27T23:12:06.759Z,70.40
2022-12-27T23:17:08.568Z,70.10
2022-12-27T23:22:10.295Z,70.07
2022-12-27T23:27:12.078Z,70.06
2022-12-27T23:32:14.133Z,69.99
2022-12-27T23:37:15.874Z,69.80
2022-12-27T23:42:17.734Z,70.06
2022-12-27T23:47:19.727Z,69.92
2022-12-27T23:52:21.727Z,69.63
2022-12-27T23:57:23.472Z,69.54
